33 min.
Landingsbaan Tegenwind Zijwind Lengte
10/28 1 kt 7 kt 305 m
METAR ETWM 151620Z AUTO 02008KT //// // ////// 09/M05 Q1029 ///

METAR uitleg | Integreren

METAR Flugplatz Dankern

Dit veld bevindt zich in Duitsland. Het vliegveld heeft één landingsbaan: 10/28 (305 m)

Flugplatz Dankern heeft geen recente waarnemingen gepubliceerd, daarom laten we je het rapport zien van Meppen Air Base, dat 14 km verderop ligt. Dit rapport is opgesteld op 15 april 2021 18:20, lokale tijd.

Vliegveldwaarnemingen

De wind staat vanuit de richting noordnoordoost (020°) met een snelheid van 8 kt.

De temperatuur is 9 °C, met een gevoelstemperatuur van 5 °C. Het dauwpunt is -5 °C, dus is de relatieve luchtvochtigheid 37%. De luchtdruk op zeeniveau is 1029 hPa (QNH).

Daglichtperiode

De zon komt vandaag op om 06:32 en gaat onder om 20:30. Dit geldt voor Flugplatz Dankern, de universele daglichtperiode kan anders zijn. Het verschil tussen de lokale tijd en UTC is +2 uur. Op dit moment is er sprake van zomertijd.

Historische gegevens

Doneren

Help je mee om Metar-Taf.com draaiend te houden?
Jouw bijdrage helpt om de site verder te ontwikkelen en om de kosten te betalen.

Nooit meer advertenties

Doneer je € 5 of meer? Dan laten we je nooit meer advertenties zien, als blijk van onze eeuwige dankbaarheid!
Log wel even in voordat je doneert

Wil je het vliegweer van Flugplatz Dankern op jouw website? Meer info   Gratis!